AGROMETEOROLOŠKI PORTAL

Vinorodna pokrajina

Temelj dobrega kmetovanja.

Izpis lokacij s podatki meritev in opazovanj za vse lokacije

Vir: ARSO
Pregled minimalnih nočnih temperatur med 22.2.2024 od 22:00 in 23.2.2024 do 10:00 (zapri pregled)
Zahodna Slovenija
Lokacija Nadmorska višina Lega Višina meritve senzorja Datum in čas meritve Dosežena min. temperatura RH Veter (m/s) Temp. rosišča Temp. mokrega termometra
Bilje UVHVVR 55 m 2 m 22.2.2024 22:00 8,6 97,1 8,2 8,4
Čelje 496 m V 2 m 23.2.2024 03:30 5,5 95,4 4,8 5,2
Dragonja 34 m S 2 m 23.2.2024 03:00 9,3 92,5 8,2 8,7
Dutovlje 316 m J 2 m 23.2.2024 01:30 6,1 91,6 4,8 5,5
Komen 269 m J 2 m 23.2.2024 02:30 7,4 100,0 7,4 7,4
Kozana 182 m S 2 m 23.2.2024 04:30 7,9 99,7 2,5 7,9 7,9
Miren. 47 m S 2 m 22.2.2024 22:00 8,2 100,0 1,2 8,2 8,2
Potoče 75 m 2 m 23.2.2024 06:30 7,7 97,6 7,4 7,5
Pradisiol 3 m S 2 m 23.2.2024 03:00 9,8 81,0 6,7 8,2
Puče 275 m J 2 m 23.2.2024 05:30 8,2 87,2 8,1 6,2 7,2
Purisima 50 m J 2 m 23.2.2024 05:00 9,2 86,3 7,0 8,1
Slap 112 m 2 m 23.2.2024 06:30 7,9 94,0 0,5 7,0 7,4
Sužid 231 m 2 m 23.2.2024 09:00 6,5 99,9 6,5 6,5
Šlovrenc 92 m JZ 2 m 23.2.2024 03:00 8,5 100,0 8,5 8,5
Truške 230 m 2 m 23.2.2024 03:30 7,1 95,1 6,4 6,7
Vipolže 59 m 2 m 22.2.2024 22:00 8,8 92,7 1,9 7,7 8,2
Višnjevik 223 m V 2 m 23.2.2024 04:00 7,5 100,0 7,5 7,5
Vogrsko 62 m 2 m 23.2.2024 02:30 9,0 92,5 1,7 7,9 8,4
Zavrhek 340 m J 2 m 23.2.2024 04:00 6,7 91,5 5,4 6,1
Ajdovščina 83 m 2 m 23.2.2024 05:00 8,0 97,0 1,4 7,6 7,8
BILJE ARSO 55 m 2 m 22.2.2024 22:00 8,9 88,0 9,2 7,0 8,0
BILJE ARSO 55 m 5 cm 23.2.2024 08:00 8,0 84,0 6,1 5,5 6,8
Bovec - letališče ARSO 438 m 2 m 23.2.2024 07:30 4,7 98,0 4,2 4,4 4,6
GODNJE ARSO 315 m 2 m 23.2.2024 00:30 7,5 91,0 7,2 6,1 6,8
Ilirska Bistrica - Koseze ARSO 415 m 2 m 23.2.2024 00:30 6,2 88,0 4,7 4,4 5,3
KUBED ARSO 236 m 2 m 23.2.2024 04:00 7,6 90,0 6,1 6,9
PODNANOS - ARSO 153 m 2 m 23.2.2024 06:00 7,9 93,0 2,5 6,8 7,3
Portorož-letališče ARSO 0 m 2 m 23.2.2024 03:00 9,9 81,0 7,8 6,8 8,3
POSTOJNA ARSO 534 m 2 m 23.2.2024 04:00 5,8 92,0 7,2 4,6 5,2
ŠKOCJAN ARSO 420 m 2 m 23.2.2024 00:00 7,0 90,0 7,5 5,5 6,2
VEDRIJAN ARSO 228 m 2 m 23.2.2024 04:30 7,9 93,0 6,8 7,4
ZADLOG - ARSO 716 m 2 m 23.2.2024 03:00 5,0 91,0 3,7 4,4
Beneša - Ankaran (ZRSKP) 62 m 2 m 23.2.2024 05:00 8,1 85,5 3,6 5,8 7,0
Mala Seva - Izola (ZRSKP) 90 m 2 m 23.2.2024 00:00 8,7 85,9 8,7 6,5 7,6
Marezeige - Koper (ZRS) 189 m J 2 m 23.2.2024 03:00 8,5 82,9 3,0 5,8 7,2
Semedela - Markovec (ZRSKP) 149 m 2 m 22.2.2024 23:30 8,4 85,7 3,0 6,2 7,3
Kapelski vrh DRSI 285 m 2 m 23.2.2024 07:30 9,0 70,0 1,1 3,8 6,5
Kobarid DRSI 242 m 2 m 22.2.2024 22:00 7,0 8,0 0,0 -24,9 -0,7
Koper DRSI 5 m 2 m 22.2.2024 23:00 12,0 83,0 4,4 9,2 10,5
Lazaret DRSI 2 m 2 m 23.2.2024 00:00 10,0 84,0 3,6 7,4 8,7
Valeta DRSI 100 m 2 m 23.2.2024 03:30 8,7 93,0 1,4 7,6 8,2
Cerovo 157 m 2 m 23.2.2024 04:30 7,9 97,1 7,5 7,7
Hruševlje 105 m 2 m 23.2.2024 01:30 8,7 95,9 8,1 8,4
Plešivo 109 m 2 m 23.2.2024 04:30 8,3 97,1 1,8 7,9 8,1
Osrednja Slovenija
Lokacija Nadmorska višina Lega Višina meritve senzorja Datum in čas meritve Dosežena min. temperatura RH Veter (m/s) Temp. rosišča Temp. mokrega termometra
Borovnica 288 m 2 m 23.2.2024 10:00 6,9 93,6 1,3 5,9 6,4
Brdo pri Lukovici 368 m J 2 m 23.2.2024 08:30 6,1 97,8 5,8 6,0
Češnjevek (Cerklje) 405 m S 2 m 23.2.2024 06:30 6,3 96,6 3,4 5,8 6,1
Gabrska Gora 487 m 2 m 23.2.2024 07:30 6,5 77,0 2,8 4,8
Jablje 302 m S 2 m 23.2.2024 08:30 6,5 97,4 1,4 6,1 6,3
Jablje 302 m S 20 cm 23.2.2024 08:00 6,3 96,5 1,2 5,8 6,1
Kamnik 377 m JV 2 m 23.2.2024 05:30 5,9 99,9 5,9 5,9
Kovor 514 m 2 m 23.2.2024 07:30 5,5 87,6 3,6 4,6
Kovor 514 m 20 cm 23.2.2024 07:30 5,5 87,6 3,6 4,6
Ljubljana KIS 297 m S 2 m 23.2.2024 10:00 7,2 92,2 6,0 6,6
Podbrezje 456 m JV 2 m 22.2.2024 22:30 5,5 99,9 5,5 5,5
Resje 503 m 2 m 23.2.2024 05:30 5,0 97,1 4,6 4,8
Šentjakob 279 m 20 cm 23.2.2024 06:00 6,3 98,9 6,1 6,2
Šentjakob 279 m 2 m 23.2.2024 06:00 6,6 98,9 6,4 6,5
Žabnica (Dorfarje) 372 m 2 m 22.2.2024 23:00 6,1 100,0 0,4 6,1 6,1
BOHINJSKA ČEŠNJICA - ARSO 596 m 2 m 23.2.2024 07:00 4,6 96,0 4,0 4,3
BORŠT PRI GORENJI VASI ARSO 532 m 2 m 23.2.2024 10:00 7,0 87,0 3,6 5,0 6,0
BRNIK - LETALIŠČE - ARSO 364 m 2 m 23.2.2024 05:30 5,8 95,0 2,8 5,1 5,4
Lesce 515 m 2 m 23.2.2024 05:00 5,5 91,0 5,0 4,2 4,9
LITIJA ARSO 263 m 2 m 23.2.2024 08:30 7,1 90,0 5,6 6,3
Ljubljana - Bežigrad ARSO 299 m 2 m 23.2.2024 08:30 7,1 92,0 3,9 5,9 6,5
LOGATEC - ARSO 486 m 2 m 23.2.2024 06:30 6,4 84,0 3,9 5,2
NOVA VAS - BLOKE - ARSO 718 m 2 m 23.2.2024 03:30 4,8 84,0 2,3 3,7
VRHNIKA ARSO 367 m 2 m 23.2.2024 05:00 6,8 89,0 1,9 5,1 6,0
Jeprca DRSI 360 m 2 m 22.2.2024 23:30 6,1 95,0 0,6 5,4 5,7
Kranj - Delavski most DRSI 380 m 2 m 23.2.2024 06:30 6,3 94,0 2,7 5,4 5,9
Krtina 1 DRSI 308 m 2 m 23.2.2024 08:30 6,0 100,0 1,4 6,0 6,0
Moste pri Komendi DRSI 331 m 2 m 22.2.2024 23:30 7,0 100,0 0,8 7,0 7,0
Podvin DRSI 489 m 2 m 22.2.2024 22:00 4,0 100,0 0,8 4,0 4,0
Vrhnika AC priključek DRSI 293 m 2 m 23.2.2024 00:00 7,0 70,0 4,7 1,9 4,7
Celjska in Koroška regija
Lokacija Nadmorska višina Lega Višina meritve senzorja Datum in čas meritve Dosežena min. temperatura RH Veter (m/s) Temp. rosišča Temp. mokrega termometra
Bistrica ob Sotli 324 m J 2 m 23.2.2024 07:30 8,7 69,6 3,5 6,2
Braslovče (Pšaker) 322 m JV 2 m 23.2.2024 09:00 6,3 100,0 0,5 6,3 6,3
Črnova (Gradišnik) 453 m JZ 2 m 23.2.2024 09:00 6,2 92,4 5,1 5,7
Gabernik-Rogaška 379 m JZ 2 m 23.2.2024 06:00 8,1 68,1 2,6 5,5
Kasaze (Mirosan) 279 m S 2 m 23.2.2024 09:00 8,1 79,7 1,4 4,8 6,5
Latkova vas 279 m S 2 m 23.2.2024 09:00 7,5 97,3 1,0 7,1 7,3
Ojstriška vas 308 m Z 2 m 23.2.2024 09:00 6,9 95,8 6,3 6,6
Radlje ob Dravi 352 m 2 m 23.2.2024 08:00 9,1 66,2 3,2 6,2
Slom 279 m S 2 m 23.2.2024 08:00 7,7 82,6 4,9 6,3
Slovenske Konjice 377 m 2 m 23.2.2024 07:00 8,0 77,5 4,3 6,2
Škofja vas 246 m 2 m 23.2.2024 08:00 7,4 80,9 2,4 4,4 5,9
Virštanj 368 m S 2 m 23.2.2024 08:00 8,6 68,3 3,1 6,0
Žalec (PDC) 254 m S 2 m 23.2.2024 09:30 8,2 94,7 0,4 7,4 7,8
Celje - Medlog ARSO 241 m S 2 m 23.2.2024 07:30 7,6 83,0 1,9 4,9 6,3
PODČETRTEK - ATOMSKE TOPLICE ARSO 201 m 2 m 23.2.2024 06:30 9,6 64,0 5,3 3,2 6,5
RAVNE NA KOROŠKEM - ARSO 394 m 2 m 23.2.2024 07:00 5,3 84,0 3,1 2,8 4,2
ROGAŠKA SLATINA ARSO 289 m 2 m 23.2.2024 07:00 9,1 64,0 5,3 2,7 6,1
SLOVENSKE KONJICE ARSO 315 m 2 m 23.2.2024 07:00 8,6 71,0 3,7 6,2
ŠMARTNO PRI SLOVENJ GRADCU ARSO 442 m 2 m 23.2.2024 10:00 6,4 93,0 2,5 5,4 5,9
ŠMARTNO PRI SLOVENJ GRADCU ARSO 442 m 5 cm 23.2.2024 09:00 5,7 87,0 3,6 3,7 4,8
Črnova DRSI 304 m 2 m 23.2.2024 07:30 7,7 88,0 1,1 5,8 6,8
Podplat DRSI 230 m 2 m 23.2.2024 07:00 9,4 65,0 1,7 3,2 6,4
Radlje DRSI 355 m 2 m 23.2.2024 06:00 9,1 73,0 1,8 4,5 6,8
Rimske Toplice DRSI 210 m 2 m 23.2.2024 08:00 9,0 77,0 1,1 5,2 7,1
Šentrupert DRSI 280 m 2 m 23.2.2024 03:00 9,0 95,0 3,1 8,2 8,6
Jugovzhodna Slovenija
Lokacija Nadmorska višina Lega Višina meritve senzorja Datum in čas meritve Dosežena min. temperatura RH Veter (m/s) Temp. rosišča Temp. mokrega termometra
Artiče 201 m J 2 m 23.2.2024 07:00 8,9 69,7 3,7 6,4
Bizeljsko 347 m J 2 m 23.2.2024 07:30 7,5 71,8 2,8 5,3
Blanca 278 m JZ 2 m 23.2.2024 09:00 8,9 70,0 3,7 6,4
Črnomelj 253 m JZ 2 m 23.2.2024 06:00 7,5 70,6 2,5 5,2
Drašiči 244 m J 2 m 23.2.2024 06:30 8,0 73,7 3,6 5,9
Kostanjevica na Krki 165 m 2 m 23.2.2024 07:00 8,9 65,1 2,7 6,0
Mali Podlog (Krško) 158 m 2 m 23.2.2024 07:30 9,1 74,6 2,5 4,8 7,0
Otočec 198 m J 2 m 23.2.2024 07:00 9,1 65,8 3,1 6,2
Rodine pri Trebnjem APS 284 m J 2 m 23.2.2024 06:30 8,3 71,5 1,0 3,5 6,0
Sremič 466 m JZ 2 m 23.2.2024 08:00 6,7 76,1 2,8 4,9
Šentjernej APS 231 m JV 2 m 23.2.2024 07:00 9,5 68,0 2,1 3,9 6,8
CERKLJE - LETALIŠČE ARSO 155 m 2 m 23.2.2024 07:00 8,7 67,0 4,2 2,9 6,0
ČRNOMELJ - DOBLIČE ARSO 155 m 2 m 23.2.2024 07:00 6,5 80,0 2,2 3,3 5,0
HOČKO POHORJE - ARSO 585 m 2 m 23.2.2024 07:00 6,9 75,0 2,8 5,0
KRŠKO - NEK ARSO 155 m 2 m 23.2.2024 08:00 9,5 73,0 2,5 4,9 7,2
MALKOVEC ARSO 397 m 2 m 23.2.2024 08:00 8,3 69,0 4,4 3,0 5,7
METLIKA ARSO 166 m 2 m 23.2.2024 07:00 8,6 69,0 3,3 6,1
NOVO MESTO ARSO 220 m 2 m 23.2.2024 07:00 9,3 63,0 3,6 2,6 6,1
NOVO MESTO ARSO 220 m 5 cm 23.2.2024 07:00 7,8 63,0 3,6 1,2 4,8
TREBNJE ARSO 303 m 2 m 23.2.2024 06:30 8,7 67,0 2,9 6,0
Elbl-2 DRSI 314 m 2 m 23.2.2024 04:00 10,0 100,0 8,3 10,0 10,0
Krško DRSI 167 m 2 m 23.2.2024 05:30 9,0 81,0 2,2 5,9 7,5
Miklavž DRSI 257 m 2 m 23.2.2024 07:30 5,0 73,0 1,9 0,6 3,1
Trebnje DRSI 270 m 2 m 23.2.2024 07:30 8,5 73,0 0,8 4,0 6,3
Severovzhodna Slovenija
Lokacija Nadmorska višina Lega Višina meritve senzorja Datum in čas meritve Dosežena min. temperatura RH Veter (m/s) Temp. rosišča Temp. mokrega termometra
Dravinjski vrh 304 m Z 2 m 23.2.2024 08:00 8,6 68,4 6,8 3,1 6,0
Gačnik METOS 297 m 2 m 23.2.2024 07:30 8,8 75,5 4,7 6,8
Godemarci 212 m JV 2 m 22.2.2024 23:00 9,5 70,5 4,4 7,0
Godemarci 212 m JV 50 cm 22.2.2024 23:00 9,4 70,5 4,3 6,9
Litmerk - bionomija in RLP 314 m JZ 2 m 23.2.2024 07:30 9,0 64,5 2,7 6,0
Maribor - BTŠ 276 m J 2 m 23.2.2024 08:00 9,6 71,2 1,6 4,7 7,2
Meranovo 501 m JV 2 m 23.2.2024 09:30 6,8 65,5 0,8 4,2
Moškanjci 213 m 2 m 23.2.2024 08:00 9,0 70,3 5,6 3,9 6,5
Pohorski dvor 313 m V 2 m 23.2.2024 07:30 8,8 69,2 3,5 6,2
Ritoznoj 402 m JV 2 m 23.2.2024 07:30 7,7 79,7 4,4 6,1
Savci 245 m JZ 2 m 23.2.2024 05:00 9,0 65,9 3,0 6,1
Selnica ob Dravi 311 m SV 2 m 23.2.2024 08:30 10,4 59,7 4,9 2,9 6,8
Selo 299 m J 2 m 23.2.2024 07:30 6,4 76,2 2,5 4,6
Stročja vas 240 m SV 2 m 23.2.2024 07:30 9,3 66,0 3,9 3,3 6,4
Špičnik 338 m 2 m 23.2.2024 08:30 8,9 72,6 4,3 6,6
Vidonci 337 m JV 2 m 23.2.2024 07:00 6,8 78,4 3,3 5,2
Vitomarci 299 m SV 2 m 23.2.2024 08:00 8,2 76,3 4,3 6,3
Zbigovci - RLP 299 m Z 2 m 23.2.2024 08:00 8,9 71,4 4,0 6,5
Zimica 296 m Z 2 m 23.2.2024 07:30 8,4 74,9 4,2 6,4
GAČNIK ARSO 291 m 2 m 23.2.2024 08:00 9,0 68,0 8,9 3,4 6,3
JERUZALEM - ARSO 335 m 2 m 23.2.2024 07:30 8,7 64,0 2,3 5,7
LENDAVA - TERME ARSO 161 m 2 m 23.2.2024 07:00 9,7 65,0 6,4 3,5 6,7
MARIBOR - LETALIŠČE ARSO 264 m 2 m 23.2.2024 07:30 8,7 70,0 6,4 3,6 6,2
MARIBOR - VRBANSKI PLATO ARSO 274 m 2 m 23.2.2024 09:30 9,4 67,0 7,8 3,6 6,6
MARINČA VAS - ARSO 272 m 2 m 23.2.2024 07:30 6,8 85,0 4,5 5,7
MURSKA SOBOTA - RAKIČAN ARSO 184 m 2 m 23.2.2024 07:30 8,0 78,0 3,1 4,4 6,3
MURSKA SOBOTA - RAKIČAN ARSO 184 m 5 cm 23.2.2024 07:30 6,4 78,0 3,1 2,9 4,8
PTUJ - ARSO 222 m 2 m 23.2.2024 06:30 9,4 65,0 5,0 3,2 6,4
SOTINSKI BREG ARSO 415 m 2 m 23.2.2024 06:30 7,3 81,0 8,3 4,3 5,8
Šentilj DRSI 300 m 2 m 23.2.2024 07:30 9,0 71,0 1,1 4,0 6,6
Postaje, katerih podatke prikazujemo na portalu, so postaje proizvajalca Adcon Telemetry in Pessl (UVHVVR/MKGP), postaje ARSO in postaje DRSI.

IZJAVA O OMEJITVI ODGOVORNOSTI: Uprava Republike Slovenije za varno hrano, veterinarstvo in varstvo rastlin (Uprava) skupaj z Opazovalno napovedovalno službo zdravstvenega varstva rastlin skrbi za nemoteno delovanje in vzdrževanje meteoroloških podatkov iz mreže agrometeoroloških postaj (Adcon Telemety). Agrometeorološki podatki, ki so objavljeni na tej strani, so zgolj informativne narave. Za morebitne vsebinske napake, do katerih lahko pride zaradi tehničnih težav pri vzdrževanju mreže, napak merilne opreme ali drugih nepredvidljivih vzrokov, napak pri vnosu, posodabljanja vsebin, Uprava ne prevzema odgovornosti, kakor tudi ne zaradi nepravilnega delovanja in/ali nedostopnosti vsebine teh spletnih strani. Uprava tudi ne prevzema odgovornosti za kakršnokoli neposredno ali posredno izgubo oziroma škodo, materialno in nematerialno, ki bi nastala zaradi dostopa, uporabe ali odločitve, sprejete na podlagi informacij, objavljenih na teh spletnih straneh, kakor tudi ne zaradi nepravilnega delovanja in/ali nedostopnosti vsebine teh spletnih strani. Uprava si pridržuje pravico do spremembe oziroma umika vsebine, deloma ali v celoti, brez predhodne najave. Vsak poskus nepooblaščenega spreminjanja ali poškodovanja spletnih strani, kot tudi nepooblaščen dostop do informacij mimo spletnih strani in do drugih vsebin, je kaznivo dejanje. Pri uporabi vsebin, objavljenih na portalu, je potrebno navesti vir podatkov (UVHVVR, Agrometeorološki portal Slovenije) in upoštevati avtorske pravice.